MMAS

Jesus Teran International Airport

Aguascalientes, Mexico
TAF AMD MMAS 192134Z 1922/2018 21007KT P6SM SCT020 SCT200 TEMPO 1923/2003 5SM TSRA BKN020CB FM200300 00000KT 5SM HZ SCT020 BKN250 FM201700 00000KT P6SM SCT020 BKN090
Issued Valid From Valid To
Sep-19 @ 21:34 UTC
(3 hours ago)
Sep-19 @ 22:00 UTC
(3 hours ago)
Sep-20 @ 18:00 UTC
(in 17 hours)
Sep-19 @ 22:00 to Sep-20 @ 03:00
TAF AMD MMAS 192134Z 1922/2018 21007KT P6SM SCT020 SCT200
Wind Visibility Clouds
210° at 7 knots Greater than 6 miles
  • Scattered at 2,000' AGL
  • Scattered at 20,000' AGL
Temporary Sep-19 @ 23:00 to Sep-20 @ 03:00
TEMPO 1923/2003 5SM TSRA BKN020CB
Visibility Clouds Conditions
5 miles
  • Broken at 2,000' AGL
  • Thunderstorm
  • Rain
From Sep-20 @ 03:00 to Sep-20 @ 17:00
FM200300 00000KT 5SM HZ SCT020 BKN250
Visibility Clouds Conditions
5 miles
  • Scattered at 2,000' AGL
  • Broken at 25,000' AGL
  • Haze
From Sep-20 @ 17:00 to Sep-20 @ 18:00
FM201700 00000KT P6SM SCT020 BKN090
Visibility Clouds
Greater than 6 miles
  • Scattered at 2,000' AGL
  • Broken at 9,000' AGL
TAF AMD MMAS 192134Z 1922/2018 21007KT P6SM SCT020 SCT200 TEMPO 1923/2003 5SM TSRA BKN020CB FM200300 00000KT 5SM HZ SCT020 BKN250 FM201700 00000KT P6SM SCT020 BKN090
Issued Sep-19 @ 21:34 UTC
(3 hours ago)
Valid From Sep-19 @ 22:00 UTC
(3 hours ago)
Valid To Sep-20 @ 18:00 UTC
(in 17 hours)
Sep-19 @ 22:00 - Sep-20 @ 03:00
Wind Visibility
210° at 7 knots Greater than 6 miles
Clouds
  • Scattered at 2,000' AGL
  • Scattered at 20,000' AGL
Temporary Sep-19 @ 23:00 - Sep-20 @ 03:00
Clouds
  • Broken at 2,000' AGL
Conditions
  • Thunderstorm
  • Rain
From Sep-20 @ 03:00 - Sep-20 @ 17:00
Clouds
  • Scattered at 2,000' AGL
  • Broken at 25,000' AGL
Conditions
  • Haze
From Sep-20 @ 17:00 - Sep-20 @ 18:00
Clouds
  • Scattered at 2,000' AGL
  • Broken at 9,000' AGL